createdAt,value
2022-11-02T00:00:34.972Z,37.77
2022-11-02T00:03:02.926Z,33.07
2022-11-02T00:05:31.185Z,33.00
2022-11-02T00:07:58.303Z,33.83
2022-11-02T00:10:25.818Z,29.63
2022-11-02T00:12:53.420Z,29.20
2022-11-02T00:15:20.985Z,35.87
2022-11-02T00:17:51.238Z,25.30
2022-11-02T00:20:20.886Z,24.40
2022-11-02T00:22:51.032Z,15.77
2022-11-02T00:25:20.425Z,20.07
2022-11-02T00:27:47.514Z,14.43
2022-11-02T00:30:14.949Z,22.40
2022-11-02T00:32:42.306Z,33.43
2022-11-02T00:35:10.309Z,26.40
2022-11-02T00:37:37.978Z,26.17
2022-11-02T00:40:06.433Z,29.00
2022-11-02T00:42:33.607Z,27.57
2022-11-02T00:45:00.699Z,25.87
2022-11-02T00:47:27.763Z,23.90
2022-11-02T00:49:54.833Z,23.23
2022-11-02T00:52:21.894Z,25.33
2022-11-02T00:54:52.021Z,29.20
2022-11-02T00:57:19.727Z,23.07
2022-11-02T00:59:47.601Z,27.90
2022-11-02T01:02:17.174Z,29.00
2022-11-02T01:04:44.379Z,23.03
2022-11-02T01:07:12.062Z,20.60
2022-11-02T01:09:39.101Z,34.43
2022-11-02T01:12:06.515Z,34.30
2022-11-02T01:14:33.761Z,29.53
2022-11-02T01:17:00.861Z,26.40
2022-11-02T01:19:28.314Z,24.50
2022-11-02T01:21:57.109Z,25.53
2022-11-02T01:24:24.175Z,34.73
2022-11-02T01:26:52.806Z,27.77
2022-11-02T01:29:20.187Z,26.03
2022-11-02T01:31:48.554Z,36.70
2022-11-02T01:34:17.530Z,28.20
2022-11-02T01:36:45.822Z,32.23
2022-11-02T01:39:13.379Z,27.57
2022-11-02T01:41:41.534Z,36.87
2022-11-02T01:44:34.904Z,32.03
2022-11-02T01:47:27.319Z,31.80
2022-11-02T01:50:05.417Z,34.97
2022-11-02T01:52:38.740Z,34.13
2022-11-02T01:55:30.454Z,29.10
2022-11-02T01:58:02.118Z,28.40
2022-11-02T02:00:29.521Z,35.43
2022-11-02T02:03:10.829Z,39.20
2022-11-02T02:05:49.696Z,28.27
2022-11-02T02:08:23.694Z,34.00
2022-11-02T02:10:50.781Z,34.63
2022-11-02T02:13:19.131Z,33.67
2022-11-02T02:16:13.901Z,37.70
2022-11-02T02:18:55.805Z,35.70
2022-11-02T02:22:14.812Z,35.40
2022-11-02T02:25:08.069Z,35.00
2022-11-02T02:28:12.006Z,27.93
2022-11-02T02:30:51.722Z,33.37
2022-11-02T02:33:57.286Z,34.70
2022-11-02T02:36:58.819Z,27.13
2022-11-02T02:39:44.283Z,26.97
2022-11-02T02:42:20.165Z,27.20
2022-11-02T02:45:20.930Z,33.50
2022-11-02T02:48:03.507Z,45.37
2022-11-02T02:50:39.998Z,29.60
2022-11-02T02:53:08.334Z,29.67
2022-11-02T02:55:44.644Z,25.10
2022-11-02T02:58:35.821Z,24.10
2022-11-02T03:01:06.360Z,31.07
2022-11-02T03:03:35.396Z,26.77
2022-11-02T03:06:33.331Z,22.97
2022-11-02T03:09:19.886Z,23.70
2022-11-02T03:11:55.367Z,22.70
2022-11-02T03:15:06.897Z,27.00
2022-11-02T03:18:01.637Z,24.87
2022-11-02T03:20:31.928Z,24.73
2022-11-02T03:23:39.783Z,20.93
2022-11-02T03:26:31.216Z,29.50
2022-11-02T03:29:13.915Z,25.70
2022-11-02T03:32:10.505Z,31.03
2022-11-02T03:34:53.943Z,27.43
2022-11-02T03:37:35.321Z,20.90
2022-11-02T03:40:12.308Z,24.30
2022-11-02T03:42:44.435Z,21.43
2022-11-02T03:45:19.456Z,16.50
2022-11-02T03:47:55.074Z,21.60
2022-11-02T03:50:23.757Z,23.73
2022-11-02T03:53:01.556Z,16.33
2022-11-02T03:55:37.854Z,18.80
2022-11-02T03:58:05.321Z,21.63
2022-11-02T04:00:35.975Z,16.37
2022-11-02T04:03:08.155Z,6.50
2022-11-02T04:05:40.582Z,12.37
2022-11-02T04:08:35.153Z,20.33
2022-11-02T04:11:25.981Z,12.07
2022-11-02T04:14:14.924Z,13.73
2022-11-02T04:16:43.894Z,10.50
2022-11-02T04:19:28.536Z,11.30
2022-11-02T04:22:19.962Z,10.43
2022-11-02T04:25:09.867Z,11.87
2022-11-02T04:27:38.244Z,12.60
2022-11-02T04:30:05.914Z,14.10
2022-11-02T04:33:06.264Z,9.40
2022-11-02T04:35:39.917Z,9.77
2022-11-02T04:38:26.577Z,11.10
2022-11-02T04:41:15.814Z,10.00
2022-11-02T04:43:45.049Z,6.50
2022-11-02T04:46:13.659Z,8.70
2022-11-02T04:48:40.726Z,16.37
2022-11-02T04:51:07.771Z,16.70
2022-11-02T04:53:36.414Z,14.80
2022-11-02T04:56:04.061Z,6.23
2022-11-02T04:58:32.658Z,21.13
2022-11-02T05:01:09.402Z,11.23
2022-11-02T05:03:37.506Z,7.80
2022-11-02T05:06:04.952Z,9.90
2022-11-02T05:08:32.826Z,14.90
2022-11-02T05:11:00.218Z,17.53
2022-11-02T05:13:28.878Z,15.23
2022-11-02T05:16:00.015Z,11.80
2022-11-02T05:18:29.748Z,14.77
2022-11-02T05:21:00.271Z,14.20
2022-11-02T05:23:30.025Z,11.00
2022-11-02T05:26:09.131Z,8.67
2022-11-02T05:28:36.493Z,12.37
2022-11-02T05:31:05.634Z,10.93
2022-11-02T05:33:35.751Z,9.63
2022-11-02T05:36:10.262Z,15.40
2022-11-02T05:41:13.147Z,8.77
2022-11-02T05:43:41.659Z,11.63
2022-11-02T05:46:11.303Z,7.33
2022-11-02T05:48:38.412Z,8.43
2022-11-02T05:51:06.085Z,9.20
2022-11-02T05:53:37.304Z,8.13
2022-11-02T05:56:09.567Z,11.47
2022-11-02T05:58:36.968Z,13.10
2022-11-02T06:01:07.135Z,10.63
2022-11-02T06:03:34.974Z,12.73
2022-11-02T06:06:09.371Z,8.17
2022-11-02T06:08:38.768Z,9.17
2022-11-02T06:11:13.680Z,11.97
2022-11-02T06:13:42.258Z,9.37
2022-11-02T06:16:12.342Z,7.90
2022-11-02T06:18:39.651Z,12.13
2022-11-02T06:21:07.157Z,14.00
2022-11-02T06:23:34.897Z,11.57
2022-11-02T06:26:03.511Z,14.47
2022-11-02T06:28:31.075Z,8.20
2022-11-02T06:30:58.769Z,11.10
2022-11-02T06:33:26.249Z,13.03
2022-11-02T06:35:55.141Z,11.37
2022-11-02T06:38:23.101Z,10.13
2022-11-02T06:40:55.408Z,19.00
2022-11-02T06:43:23.235Z,24.20
2022-11-02T06:45:50.848Z,11.53
2022-11-02T06:48:17.903Z,17.83
2022-11-02T06:50:44.990Z,19.07
2022-11-02T06:53:12.030Z,24.53
2022-11-02T06:55:39.260Z,14.50
2022-11-02T06:58:06.482Z,10.70
2022-11-02T07:00:33.988Z,12.17
2022-11-02T07:03:04.941Z,14.77
2022-11-02T07:05:33.313Z,12.50
2022-11-02T07:08:00.606Z,10.37
2022-11-02T07:10:28.816Z,19.97
2022-11-02T07:12:57.609Z,9.63
2022-11-02T07:15:26.541Z,13.57
2022-11-02T07:17:54.126Z,19.87
2022-11-02T07:20:21.621Z,16.10
2022-11-02T07:22:56.922Z,16.87
2022-11-02T07:25:27.136Z,16.00
2022-11-02T07:27:55.170Z,14.50
2022-11-02T07:30:22.597Z,12.77
2022-11-02T07:32:49.664Z,16.83
2022-11-02T07:35:17.619Z,14.20
2022-11-02T07:37:45.204Z,30.20
2022-11-02T07:40:14.384Z,17.40
2022-11-02T07:42:46.617Z,12.63
2022-11-02T07:45:16.551Z,11.73
2022-11-02T07:47:47.709Z,11.10
2022-11-02T07:50:18.291Z,9.30
2022-11-02T07:52:51.899Z,14.40
2022-11-02T07:55:23.108Z,13.87
2022-11-02T07:58:13.719Z,10.90
2022-11-02T08:00:41.521Z,16.07
2022-11-02T08:03:11.602Z,10.53
2022-11-02T08:05:41.810Z,15.60
2022-11-02T08:08:17.646Z,12.13
2022-11-02T08:10:46.662Z,10.83
2022-11-02T08:13:18.029Z,7.90
2022-11-02T08:15:45.435Z,11.20
2022-11-02T08:18:23.621Z,8.13
2022-11-02T08:20:51.608Z,32.53
2022-11-02T08:23:20.988Z,13.63
2022-11-02T08:25:50.491Z,11.73
2022-11-02T08:28:25.206Z,11.77
2022-11-02T08:30:53.084Z,8.20
2022-11-02T08:33:21.100Z,11.30
2022-11-02T08:35:49.070Z,16.00
2022-11-02T08:38:17.007Z,10.87
2022-11-02T08:40:44.965Z,13.10
2022-11-02T08:43:14.526Z,11.13
2022-11-02T08:48:33.064Z,7.40
2022-11-02T08:51:00.113Z,9.27
2022-11-02T08:53:27.302Z,8.60
2022-11-02T08:55:58.719Z,10.63
2022-11-02T08:58:26.327Z,9.43
2022-11-02T09:00:54.856Z,5.70
2022-11-02T09:03:26.779Z,11.27
2022-11-02T09:06:00.411Z,16.87
2022-11-02T09:08:28.591Z,12.70
2022-11-02T09:11:01.243Z,9.87
2022-11-02T09:13:29.214Z,10.70
2022-11-02T09:15:58.532Z,13.87
2022-11-02T09:18:26.061Z,5.07
2022-11-02T09:20:53.145Z,7.93
2022-11-02T09:23:21.998Z,9.87
2022-11-02T09:25:50.146Z,7.70
2022-11-02T09:28:17.438Z,11.80
2022-11-02T09:30:44.566Z,12.27
2022-11-02T09:33:13.465Z,16.90
2022-11-02T09:35:47.106Z,5.93
2022-11-02T09:38:14.954Z,6.90
2022-11-02T09:41:00.360Z,9.30
2022-11-02T09:43:57.997Z,7.67
2022-11-02T09:46:43.578Z,9.93
2022-11-02T09:49:23.669Z,9.47
2022-11-02T09:51:54.270Z,5.40
2022-11-02T09:54:46.018Z,5.80
2022-11-02T09:57:28.437Z,4.67
2022-11-02T09:59:56.648Z,9.53
2022-11-02T10:03:26.498Z,4.40
2022-11-02T10:06:15.591Z,7.73
2022-11-02T10:09:29.331Z,10.30
2022-11-02T10:12:15.512Z,5.30
2022-11-02T10:15:10.894Z,3.80
2022-11-02T10:17:40.144Z,6.07
2022-11-02T10:20:29.341Z,7.20
2022-11-02T10:23:04.058Z,4.57
2022-11-02T10:25:31.463Z,11.03
2022-11-02T10:28:19.431Z,4.00
2022-11-02T10:30:46.715Z,7.17
2022-11-02T10:33:18.746Z,2.63
2022-11-02T10:36:22.152Z,3.53
2022-11-02T10:39:07.289Z,6.90
2022-11-02T10:42:13.996Z,1.70
2022-11-02T10:45:11.203Z,8.33
2022-11-02T10:47:51.365Z,6.57
2022-11-02T10:50:46.447Z,2.40
2022-11-02T10:53:40.208Z,8.20
2022-11-02T10:56:24.214Z,10.63
2022-11-02T10:59:03.027Z,6.60
2022-11-02T11:01:31.963Z,5.93
2022-11-02T11:04:22.879Z,13.23
2022-11-02T11:06:50.985Z,5.97
2022-11-02T11:09:23.139Z,7.10
2022-11-02T11:11:56.926Z,6.20
2022-11-02T11:20:38.707Z,13.03
2022-11-02T11:23:27.152Z,2.73
2022-11-02T11:26:01.197Z,5.60
2022-11-02T11:28:57.372Z,8.60
2022-11-02T11:31:25.523Z,10.07
2022-11-02T11:33:56.105Z,4.83
2022-11-02T11:36:33.596Z,4.30
2022-11-02T11:39:08.343Z,5.67
2022-11-02T11:41:41.367Z,6.03
2022-11-02T11:44:14.044Z,5.73
2022-11-02T11:46:54.559Z,3.93
2022-11-02T11:49:41.962Z,3.97
2022-11-02T11:52:31.709Z,5.10
2022-11-02T11:55:20.565Z,10.40
2022-11-02T11:58:39.605Z,8.20
2022-11-02T12:01:12.462Z,11.53
2022-11-02T12:04:00.537Z,6.87
2022-11-02T12:06:54.202Z,14.13
2022-11-02T12:09:53.232Z,9.60
2022-11-02T12:12:36.873Z,7.03
2022-11-02T12:15:25.506Z,12.67
2022-11-02T12:18:14.666Z,10.30
2022-11-02T12:21:06.191Z,8.03
2022-11-02T12:24:39.391Z,5.30
2022-11-02T12:27:27.494Z,9.40
2022-11-02T12:30:27.662Z,5.70
2022-11-02T12:33:19.341Z,18.27
2022-11-02T12:36:26.317Z,12.47
2022-11-02T12:39:19.589Z,6.50
2022-11-02T12:42:04.639Z,4.87
2022-11-02T12:45:29.895Z,7.07
2022-11-02T12:48:05.294Z,14.47
2022-11-02T12:50:55.615Z,8.70
2022-11-02T12:53:48.716Z,8.00
2022-11-02T12:56:30.681Z,12.33
2022-11-02T12:58:59.110Z,10.73
2022-11-02T13:01:38.459Z,12.80
2022-11-02T13:04:34.040Z,17.47
2022-11-02T13:07:12.942Z,6.13
2022-11-02T13:09:45.369Z,4.73
2022-11-02T13:12:19.756Z,3.10
2022-11-02T13:14:53.192Z,6.70
2022-11-02T13:17:49.708Z,7.93
2022-11-02T13:20:45.597Z,4.07
2022-11-02T13:23:33.617Z,5.57
2022-11-02T13:26:10.743Z,4.90
2022-11-02T13:28:50.802Z,5.70
2022-11-02T13:31:34.006Z,5.50
2022-11-02T13:34:26.013Z,8.43
2022-11-02T13:36:53.192Z,8.23
2022-11-02T13:39:33.757Z,8.40
2022-11-02T13:42:25.662Z,8.63
2022-11-02T13:45:04.899Z,8.33
2022-11-02T13:48:03.813Z,7.70
2022-11-02T13:50:33.431Z,6.67
2022-11-02T13:53:08.809Z,7.50
2022-11-02T13:55:54.498Z,9.10
2022-11-02T13:58:51.049Z,7.80
2022-11-02T14:01:19.856Z,3.90
2022-11-02T14:04:01.657Z,5.93
2022-11-02T14:06:30.824Z,4.37
2022-11-02T14:09:05.858Z,4.37
2022-11-02T14:11:42.108Z,4.70
2022-11-02T14:14:12.006Z,5.27
2022-11-02T14:16:51.279Z,2.27
2022-11-02T14:19:20.264Z,5.97
2022-11-02T14:22:18.639Z,2.90
2022-11-02T14:24:45.626Z,4.83
2022-11-02T14:27:12.672Z,11.70
2022-11-02T14:29:42.747Z,4.33
2022-11-02T14:32:36.360Z,6.30
2022-11-02T14:35:18.898Z,3.63
2022-11-02T14:38:05.385Z,6.20
2022-11-02T14:41:06.148Z,7.70
2022-11-02T14:44:03.794Z,3.07
2022-11-02T14:46:56.696Z,5.57
2022-11-02T14:49:29.896Z,4.47
2022-11-02T14:52:18.133Z,4.03
2022-11-02T14:55:00.721Z,5.30
2022-11-02T14:57:40.876Z,5.93
2022-11-02T15:00:25.760Z,4.87
2022-11-02T15:02:53.411Z,4.80
2022-11-02T15:05:40.069Z,5.33
2022-11-02T15:08:26.075Z,5.70
2022-11-02T15:10:53.479Z,4.40
2022-11-02T15:13:20.641Z,5.53
2022-11-02T15:15:50.706Z,5.53
2022-11-02T15:18:37.183Z,6.13
2022-11-02T15:21:10.605Z,9.47
2022-11-02T15:24:13.810Z,8.87
2022-11-02T15:26:46.912Z,6.40
2022-11-02T15:29:53.955Z,7.70
2022-11-02T15:32:25.927Z,9.73
2022-11-02T15:34:55.444Z,5.53
2022-11-02T15:37:29.878Z,7.60
2022-11-02T15:40:00.459Z,5.80
2022-11-02T15:42:44.758Z,4.30
2022-11-02T15:45:48.850Z,5.23
2022-11-02T15:48:28.958Z,4.87
2022-11-02T15:51:14.277Z,7.50
2022-11-02T15:54:00.211Z,11.20
2022-11-02T15:56:43.106Z,10.73
2022-11-02T15:59:27.969Z,13.67
2022-11-02T16:02:28.067Z,4.37
2022-11-02T16:05:01.604Z,6.40
2022-11-02T16:07:38.454Z,12.23
2022-11-02T16:10:35.110Z,5.40
2022-11-02T16:13:08.204Z,10.07
2022-11-02T16:15:35.835Z,5.50
2022-11-02T16:18:06.872Z,5.13
2022-11-02T16:20:37.085Z,4.67
2022-11-02T16:23:07.047Z,10.53
2022-11-02T16:25:45.043Z,8.53
2022-11-02T16:28:35.741Z,8.90
2022-11-02T16:31:31.103Z,8.67
2022-11-02T16:34:29.766Z,7.40
2022-11-02T16:36:58.012Z,5.27
2022-11-02T16:39:30.458Z,4.10
2022-11-02T16:41:59.610Z,5.23
2022-11-02T16:44:30.885Z,3.70
2022-11-02T16:47:09.558Z,4.53
2022-11-02T16:49:58.838Z,9.50
2022-11-02T16:52:37.598Z,10.00
2022-11-02T16:55:45.278Z,5.73
2022-11-02T16:58:22.521Z,8.70
2022-11-02T17:00:58.459Z,7.97
2022-11-02T17:03:31.741Z,5.40
2022-11-02T17:06:03.608Z,7.93
2022-11-02T17:08:38.863Z,6.80
2022-11-02T17:11:09.931Z,11.77
2022-11-02T17:13:45.370Z,10.33
2022-11-02T17:16:12.910Z,6.10
2022-11-02T17:18:40.133Z,7.10
2022-11-02T17:21:13.593Z,7.30
2022-11-02T17:23:46.143Z,8.03
2022-11-02T17:26:22.401Z,7.43
2022-11-02T17:28:51.765Z,10.60
2022-11-02T17:31:29.103Z,8.97
2022-11-02T17:34:08.062Z,6.17
2022-11-02T17:36:46.400Z,6.90
2022-11-02T17:39:15.979Z,10.83
2022-11-02T17:42:03.095Z,11.10
2022-11-02T17:44:30.202Z,4.93
2022-11-02T17:46:57.240Z,7.20
2022-11-02T17:49:24.350Z,10.47
2022-11-02T17:51:51.502Z,10.50
2022-11-02T17:54:18.535Z,8.23
2022-11-02T17:56:45.620Z,12.30
2022-11-02T17:59:12.634Z,14.60
2022-11-02T18:01:39.896Z,18.13
2022-11-02T18:04:07.144Z,13.60
2022-11-02T18:06:34.451Z,11.10
2022-11-02T18:09:11.012Z,13.60
2022-11-02T18:11:38.273Z,18.77
2022-11-02T18:14:05.770Z,11.30
2022-11-02T18:16:33.016Z,9.03
2022-11-02T18:19:00.083Z,10.97
2022-11-02T18:21:27.239Z,15.03
2022-11-02T18:23:54.315Z,11.87
2022-11-02T18:26:21.313Z,7.03
2022-11-02T18:28:48.362Z,15.67
2022-11-02T18:31:15.382Z,19.37
2022-11-02T18:33:45.532Z,8.60
2022-11-02T18:36:12.612Z,13.40
2022-11-02T18:38:39.692Z,12.47
2022-11-02T18:41:29.602Z,18.83
2022-11-02T18:44:08.855Z,12.70
2022-11-02T18:46:38.967Z,7.17
2022-11-02T18:49:06.552Z,8.60
2022-11-02T18:51:33.863Z,10.93
2022-11-02T18:54:06.127Z,14.80
2022-11-02T18:56:33.259Z,4.80
2022-11-02T18:59:00.415Z,7.03
2022-11-02T19:01:28.221Z,8.60
2022-11-02T19:03:58.751Z,15.80
2022-11-02T19:06:47.868Z,7.60
2022-11-02T19:09:19.552Z,6.70
2022-11-02T19:12:00.123Z,5.60
2022-11-02T19:14:34.649Z,13.40
2022-11-02T19:17:02.715Z,10.50
2022-11-02T19:19:30.215Z,9.53
2022-11-02T19:21:57.450Z,6.60
2022-11-02T19:24:24.548Z,6.60
2022-11-02T19:26:52.238Z,10.90
2022-11-02T19:29:19.515Z,7.30
2022-11-02T19:31:46.918Z,7.97
2022-11-02T19:34:14.544Z,6.80
2022-11-02T19:36:41.660Z,9.17
2022-11-02T19:39:09.960Z,12.40
2022-11-02T19:41:38.789Z,10.30
2022-11-02T19:44:06.887Z,6.37
2022-11-02T19:46:34.778Z,12.00
2022-11-02T19:49:01.867Z,6.73
2022-11-02T19:51:31.420Z,8.40
2022-11-02T19:54:02.273Z,12.60
2022-11-02T19:56:33.292Z,3.40
2022-11-02T19:59:01.167Z,11.30
2022-11-02T20:01:34.849Z,6.20
2022-11-02T20:04:02.733Z,7.13
2022-11-02T20:06:40.544Z,12.43
2022-11-02T20:09:19.066Z,12.93
2022-11-02T20:11:47.597Z,19.00
2022-11-02T20:14:16.677Z,22.23
2022-11-02T20:16:45.276Z,12.00
2022-11-02T20:19:17.347Z,15.17
2022-11-02T20:21:44.851Z,8.63
2022-11-02T20:24:12.543Z,12.37
2022-11-02T20:26:41.363Z,7.93
2022-11-02T20:29:11.035Z,7.90
2022-11-02T20:31:41.477Z,9.73
2022-11-02T20:34:09.280Z,10.87
2022-11-02T20:36:36.494Z,11.53
2022-11-02T20:39:05.003Z,7.33
2022-11-02T20:41:32.320Z,9.60
2022-11-02T20:43:59.847Z,12.50
2022-11-02T20:46:39.052Z,6.83
2022-11-02T20:49:20.543Z,5.70
2022-11-02T20:51:53.152Z,6.80
2022-11-02T20:54:22.327Z,6.83
2022-11-02T20:56:50.193Z,5.53
2022-11-02T20:59:18.273Z,13.97
2022-11-02T21:01:46.065Z,9.83
2022-11-02T21:04:19.738Z,11.20
2022-11-02T21:06:49.154Z,9.40
2022-11-02T21:09:17.078Z,8.40
2022-11-02T21:12:02.579Z,11.43
2022-11-02T21:14:29.750Z,11.37
2022-11-02T21:16:56.798Z,7.23
2022-11-02T21:19:24.135Z,10.07
2022-11-02T21:21:56.540Z,6.00
2022-11-02T21:24:25.375Z,7.50
2022-11-02T21:26:52.660Z,8.00
2022-11-02T21:29:21.149Z,5.63
2022-11-02T21:31:48.844Z,11.10
2022-11-02T21:34:16.134Z,4.77
2022-11-02T21:36:43.217Z,6.80
2022-11-02T21:39:10.365Z,19.90
2022-11-02T21:41:39.033Z,10.60
2022-11-02T21:44:07.585Z,7.90
2022-11-02T21:46:35.808Z,17.80
2022-11-02T21:49:03.226Z,7.57
2022-11-02T21:51:30.580Z,19.77
2022-11-02T21:53:57.762Z,7.50
2022-11-02T21:56:27.450Z,11.40
2022-11-02T21:58:56.014Z,12.93
2022-11-02T22:01:45.648Z,10.30
2022-11-02T22:04:31.812Z,23.23
2022-11-02T22:07:01.149Z,15.13
2022-11-02T22:09:29.143Z,18.23
2022-11-02T22:12:16.015Z,23.97
2022-11-02T22:14:44.738Z,10.00
2022-11-02T22:17:22.036Z,13.87
2022-11-02T22:19:55.821Z,11.20
2022-11-02T22:22:23.935Z,10.97
2022-11-02T22:24:51.079Z,9.23
2022-11-02T22:27:18.160Z,14.83
2022-11-02T22:29:45.326Z,14.97
2022-11-02T22:32:14.577Z,28.10
2022-11-02T22:34:43.541Z,15.10
2022-11-02T22:37:29.014Z,17.43
2022-11-02T22:39:56.109Z,13.97
2022-11-02T22:42:23.223Z,19.53
2022-11-02T22:44:50.264Z,21.57
2022-11-02T22:47:17.365Z,18.73
2022-11-02T22:49:44.409Z,22.80
2022-11-02T22:52:11.539Z,13.10
2022-11-02T22:54:38.645Z,16.50
2022-11-02T22:57:05.716Z,16.23
2022-11-02T22:59:33.123Z,17.57
2022-11-02T23:02:00.315Z,18.03
2022-11-02T23:04:27.491Z,10.17
2022-11-02T23:06:54.585Z,16.83
2022-11-02T23:09:21.694Z,18.67
2022-11-02T23:11:48.900Z,14.83
2022-11-02T23:14:17.093Z,18.53
2022-11-02T23:16:49.701Z,18.33
2022-11-02T23:19:31.279Z,12.10
2022-11-02T23:22:24.384Z,15.40
2022-11-02T23:25:15.098Z,15.20
2022-11-02T23:28:21.963Z,15.83
2022-11-02T23:31:07.568Z,13.30
2022-11-02T23:33:38.308Z,11.40
2022-11-02T23:36:12.942Z,27.13
2022-11-02T23:39:01.449Z,16.70
2022-11-02T23:41:30.804Z,12.97
2022-11-02T23:44:14.730Z,10.67
2022-11-02T23:46:51.018Z,17.93
2022-11-02T23:49:19.386Z,18.93
2022-11-02T23:52:04.893Z,14.30
2022-11-02T23:54:50.291Z,31.73
2022-11-02T23:57:18.664Z,10.73
2022-11-02T23:59:45.698Z,11.60
